sensor_id;sensor_type;location;lat;lon;timestamp;temperature;humidity
70271;SHT31;57680;54.292;18.598;2023-10-31T00:00:16;8.26;99.99
70271;SHT31;57680;54.292;18.598;2023-10-31T00:02:42;8.29;99.99
70271;SHT31;57680;54.292;18.598;2023-10-31T00:05:07;8.28;99.99
70271;SHT31;57680;54.292;18.598;2023-10-31T00:07:33;8.28;99.99
70271;SHT31;57680;54.292;18.598;2023-10-31T00:16:23;8.26;99.99
70271;SHT31;57680;54.292;18.598;2023-10-31T00:18:48;8.29;99.99
70271;SHT31;57680;54.292;18.598;2023-10-31T00:21:13;8.28;99.99
70271;SHT31;57680;54.292;18.598;2023-10-31T00:23:48;8.32;99.99
70271;SHT31;57680;54.292;18.598;2023-10-31T00:26:14;8.26;99.99
70271;SHT31;57680;54.292;18.598;2023-10-31T00:28:40;8.32;99.99
70271;SHT31;57680;54.292;18.598;2023-10-31T00:31:05;8.30;99.99
70271;SHT31;57680;54.292;18.598;2023-10-31T00:33:31;8.36;99.99
70271;SHT31;57680;54.292;18.598;2023-10-31T00:35:56;8.42;99.99
70271;SHT31;57680;54.292;18.598;2023-10-31T00:38:22;8.44;99.99
70271;SHT31;57680;54.292;18.598;2023-10-31T00:40:47;8.52;99.99
70271;SHT31;57680;54.292;18.598;2023-10-31T00:43:12;8.56;99.99
70271;SHT31;57680;54.292;18.598;2023-10-31T00:45:38;8.64;99.99
70271;SHT31;57680;54.292;18.598;2023-10-31T00:48:03;8.61;99.99
70271;SHT31;57680;54.292;18.598;2023-10-31T00:50:29;8.65;99.99
70271;SHT31;57680;54.292;18.598;2023-10-31T00:52:54;8.70;99.99
70271;SHT31;57680;54.292;18.598;2023-10-31T00:55:20;8.71;99.99
70271;SHT31;57680;54.292;18.598;2023-10-31T00:57:45;8.71;99.99
70271;SHT31;57680;54.292;18.598;2023-10-31T01:00:11;8.78;99.99
70271;SHT31;57680;54.292;18.598;2023-10-31T01:02:36;8.78;99.99
70271;SHT31;57680;54.292;18.598;2023-10-31T01:05:02;8.83;99.99
70271;SHT31;57680;54.292;18.598;2023-10-31T01:07:27;8.84;99.99
70271;SHT31;57680;54.292;18.598;2023-10-31T01:09:52;8.85;99.99
70271;SHT31;57680;54.292;18.598;2023-10-31T01:12:18;8.85;99.99
70271;SHT31;57680;54.292;18.598;2023-10-31T01:14:43;8.85;99.99
70271;SHT31;57680;54.292;18.598;2023-10-31T01:17:08;8.84;99.99
70271;SHT31;57680;54.292;18.598;2023-10-31T01:19:34;8.80;99.99
70271;SHT31;57680;54.292;18.598;2023-10-31T01:21:59;8.77;99.99
70271;SHT31;57680;54.292;18.598;2023-10-31T01:24:24;8.78;99.99
70271;SHT31;57680;54.292;18.598;2023-10-31T01:26:50;8.78;99.99
70271;SHT31;57680;54.292;18.598;2023-10-31T01:29:15;8.84;99.99
70271;SHT31;57680;54.292;18.598;2023-10-31T01:31:41;8.87;99.99
70271;SHT31;57680;54.292;18.598;2023-10-31T01:34:06;8.85;99.99
70271;SHT31;57680;54.292;18.598;2023-10-31T01:36:32;8.89;99.99
70271;SHT31;57680;54.292;18.598;2023-10-31T01:38:57;8.87;99.99
70271;SHT31;57680;54.292;18.598;2023-10-31T01:41:22;8.87;99.99
70271;SHT31;57680;54.292;18.598;2023-10-31T01:43:48;8.87;99.99
70271;SHT31;57680;54.292;18.598;2023-10-31T01:46:13;8.88;99.99
70271;SHT31;57680;54.292;18.598;2023-10-31T01:48:38;8.87;99.99
70271;SHT31;57680;54.292;18.598;2023-10-31T01:51:04;8.87;99.99
70271;SHT31;57680;54.292;18.598;2023-10-31T01:53:31;8.89;99.99
70271;SHT31;57680;54.292;18.598;2023-10-31T01:55:58;8.89;99.99
70271;SHT31;57680;54.292;18.598;2023-10-31T01:58:30;8.84;99.99
70271;SHT31;57680;54.292;18.598;2023-10-31T02:00:56;8.84;99.99
70271;SHT31;57680;54.292;18.598;2023-10-31T02:03:21;8.78;99.99
70271;SHT31;57680;54.292;18.598;2023-10-31T02:05:47;8.75;99.99
70271;SHT31;57680;54.292;18.598;2023-10-31T02:08:12;8.73;99.99
70271;SHT31;57680;54.292;18.598;2023-10-31T02:10:38;8.70;99.99
70271;SHT31;57680;54.292;18.598;2023-10-31T02:13:16;8.68;99.99
70271;SHT31;57680;54.292;18.598;2023-10-31T02:15:42;8.64;99.99
70271;SHT31;57680;54.292;18.598;2023-10-31T02:18:08;8.63;99.99
70271;SHT31;57680;54.292;18.598;2023-10-31T02:20:34;8.63;99.99
70271;SHT31;57680;54.292;18.598;2023-10-31T02:22:59;8.64;99.99
70271;SHT31;57680;54.292;18.598;2023-10-31T02:25:24;8.65;99.99
70271;SHT31;57680;54.292;18.598;2023-10-31T02:27:50;8.63;99.99
70271;SHT31;57680;54.292;18.598;2023-10-31T02:30:15;8.61;99.99
70271;SHT31;57680;54.292;18.598;2023-10-31T02:32:41;8.60;99.99
70271;SHT31;57680;54.292;18.598;2023-10-31T02:35:07;8.56;99.99
70271;SHT31;57680;54.292;18.598;2023-10-31T02:37:33;8.53;99.99
70271;SHT31;57680;54.292;18.598;2023-10-31T02:39:58;8.54;99.99
70271;SHT31;57680;54.292;18.598;2023-10-31T02:42:24;8.59;99.99
70271;SHT31;57680;54.292;18.598;2023-10-31T02:44:49;8.64;99.99
70271;SHT31;57680;54.292;18.598;2023-10-31T02:47:14;8.68;99.99
70271;SHT31;57680;54.292;18.598;2023-10-31T02:49:40;8.74;99.99
70271;SHT31;57680;54.292;18.598;2023-10-31T02:52:05;8.81;99.99
70271;SHT31;57680;54.292;18.598;2023-10-31T02:54:30;8.87;99.99
70271;SHT31;57680;54.292;18.598;2023-10-31T02:56:57;8.89;99.99
70271;SHT31;57680;54.292;18.598;2023-10-31T02:59:22;8.94;99.99
70271;SHT31;57680;54.292;18.598;2023-10-31T03:01:48;8.98;99.99
70271;SHT31;57680;54.292;18.598;2023-10-31T03:04:13;9.00;99.99
70271;SHT31;57680;54.292;18.598;2023-10-31T03:06:38;9.03;99.99
70271;SHT31;57680;54.292;18.598;2023-10-31T03:09:04;9.04;99.99
70271;SHT31;57680;54.292;18.598;2023-10-31T03:11:29;9.07;99.99
70271;SHT31;57680;54.292;18.598;2023-10-31T03:13:54;9.04;99.99
70271;SHT31;57680;54.292;18.598;2023-10-31T03:16:20;9.04;99.99
70271;SHT31;57680;54.292;18.598;2023-10-31T03:18:46;9.03;99.99
70271;SHT31;57680;54.292;18.598;2023-10-31T03:21:11;9.03;99.99
70271;SHT31;57680;54.292;18.598;2023-10-31T03:23:36;9.04;99.99
70271;SHT31;57680;54.292;18.598;2023-10-31T03:26:02;8.98;99.99
70271;SHT31;57680;54.292;18.598;2023-10-31T03:28:27;8.94;99.99
70271;SHT31;57680;54.292;18.598;2023-10-31T03:30:52;9.01;99.99
70271;SHT31;57680;54.292;18.598;2023-10-31T03:33:17;9.04;99.99
70271;SHT31;57680;54.292;18.598;2023-10-31T03:35:43;9.05;99.99
70271;SHT31;57680;54.292;18.598;2023-10-31T03:38:09;9.10;99.99
70271;SHT31;57680;54.292;18.598;2023-10-31T03:40:34;9.15;99.99
70271;SHT31;57680;54.292;18.598;2023-10-31T03:42:59;9.14;99.99
70271;SHT31;57680;54.292;18.598;2023-10-31T03:45:24;9.16;99.99
70271;SHT31;57680;54.292;18.598;2023-10-31T03:47:50;9.24;99.99
70271;SHT31;57680;54.292;18.598;2023-10-31T03:50:15;9.24;99.99
70271;SHT31;57680;54.292;18.598;2023-10-31T03:52:40;9.26;99.99
70271;SHT31;57680;54.292;18.598;2023-10-31T03:55:06;9.34;99.99
70271;SHT31;57680;54.292;18.598;2023-10-31T03:57:31;9.29;99.99
70271;SHT31;57680;54.292;18.598;2023-10-31T03:59:57;9.31;99.99
70271;SHT31;57680;54.292;18.598;2023-10-31T04:02:22;9.28;99.99
70271;SHT31;57680;54.292;18.598;2023-10-31T04:04:47;9.34;99.99
70271;SHT31;57680;54.292;18.598;2023-10-31T04:07:13;9.28;99.99
70271;SHT31;57680;54.292;18.598;2023-10-31T04:09:38;9.31;99.99
70271;SHT31;57680;54.292;18.598;2023-10-31T04:12:04;9.34;99.99
70271;SHT31;57680;54.292;18.598;2023-10-31T04:14:29;9.35;99.99
70271;SHT31;57680;54.292;18.598;2023-10-31T04:16:54;9.35;99.99
70271;SHT31;57680;54.292;18.598;2023-10-31T04:19:20;9.35;99.99
70271;SHT31;57680;54.292;18.598;2023-10-31T04:21:45;9.38;99.99
70271;SHT31;57680;54.292;18.598;2023-10-31T04:24:10;9.38;99.99
70271;SHT31;57680;54.292;18.598;2023-10-31T04:26:35;9.40;99.99
70271;SHT31;57680;54.292;18.598;2023-10-31T04:29:01;9.43;99.99
70271;SHT31;57680;54.292;18.598;2023-10-31T04:31:26;9.42;99.99
70271;SHT31;57680;54.292;18.598;2023-10-31T04:33:51;9.43;99.99
70271;SHT31;57680;54.292;18.598;2023-10-31T04:36:17;9.45;99.99
70271;SHT31;57680;54.292;18.598;2023-10-31T04:38:42;9.47;99.99
70271;SHT31;57680;54.292;18.598;2023-10-31T04:41:08;9.52;99.99
70271;SHT31;57680;54.292;18.598;2023-10-31T04:43:33;9.53;99.99
70271;SHT31;57680;54.292;18.598;2023-10-31T04:45:58;9.53;99.99
70271;SHT31;57680;54.292;18.598;2023-10-31T04:48:23;9.57;99.99
70271;SHT31;57680;54.292;18.598;2023-10-31T04:50:49;9.60;99.99
70271;SHT31;57680;54.292;18.598;2023-10-31T04:53:14;9.62;99.99
70271;SHT31;57680;54.292;18.598;2023-10-31T04:55:39;9.65;99.99
70271;SHT31;57680;54.292;18.598;2023-10-31T04:58:05;9.62;99.99
70271;SHT31;57680;54.292;18.598;2023-10-31T05:00:30;9.66;99.99
70271;SHT31;57680;54.292;18.598;2023-10-31T05:02:55;9.67;99.99
70271;SHT31;57680;54.292;18.598;2023-10-31T05:05:21;9.67;99.99
70271;SHT31;57680;54.292;18.598;2023-10-31T05:07:46;9.65;99.99
70271;SHT31;57680;54.292;18.598;2023-10-31T05:10:11;9.65;99.99
70271;SHT31;57680;54.292;18.598;2023-10-31T05:12:37;9.65;99.99
70271;SHT31;57680;54.292;18.598;2023-10-31T05:15:02;9.63;99.99
70271;SHT31;57680;54.292;18.598;2023-10-31T05:17:27;9.65;99.99
70271;SHT31;57680;54.292;18.598;2023-10-31T05:19:53;9.63;99.99
70271;SHT31;57680;54.292;18.598;2023-10-31T05:22:18;9.62;99.99
70271;SHT31;57680;54.292;18.598;2023-10-31T05:24:43;9.60;99.99
70271;SHT31;57680;54.292;18.598;2023-10-31T05:27:09;9.62;99.99
70271;SHT31;57680;54.292;18.598;2023-10-31T05:29:34;9.62;99.99
70271;SHT31;57680;54.292;18.598;2023-10-31T05:32:00;9.66;99.99
70271;SHT31;57680;54.292;18.598;2023-10-31T05:34:25;9.65;99.99
70271;SHT31;57680;54.292;18.598;2023-10-31T05:36:50;9.73;99.99
70271;SHT31;57680;54.292;18.598;2023-10-31T05:39:16;9.74;99.99
70271;SHT31;57680;54.292;18.598;2023-10-31T05:41:41;9.73;99.99
70271;SHT31;57680;54.292;18.598;2023-10-31T05:56:52;9.66;99.99
70271;SHT31;57680;54.292;18.598;2023-10-31T05:59:18;9.62;99.99
70271;SHT31;57680;54.292;18.598;2023-10-31T06:01:43;9.59;99.99
70271;SHT31;57680;54.292;18.598;2023-10-31T06:04:08;9.57;99.99
70271;SHT31;57680;54.292;18.598;2023-10-31T06:16:50;9.57;99.99
70271;SHT31;57680;54.292;18.598;2023-10-31T06:19:15;9.62;99.99
70271;SHT31;57680;54.292;18.598;2023-10-31T06:21:40;9.69;99.99
70271;SHT31;57680;54.292;18.598;2023-10-31T06:24:07;9.76;99.99
70271;SHT31;57680;54.292;18.598;2023-10-31T06:26:32;9.86;99.99
70271;SHT31;57680;54.292;18.598;2023-10-31T06:28:57;9.90;99.99
70271;SHT31;57680;54.292;18.598;2023-10-31T06:31:23;10.01;99.99
70271;SHT31;57680;54.292;18.598;2023-10-31T06:33:48;10.01;99.99
70271;SHT31;57680;54.292;18.598;2023-10-31T06:36:13;9.97;99.99
70271;SHT31;57680;54.292;18.598;2023-10-31T06:38:39;9.97;99.99
70271;SHT31;57680;54.292;18.598;2023-10-31T06:41:04;10.00;99.99
70271;SHT31;57680;54.292;18.598;2023-10-31T06:43:29;10.01;99.99
70271;SHT31;57680;54.292;18.598;2023-10-31T06:45:55;10.05;99.99
70271;SHT31;57680;54.292;18.598;2023-10-31T06:48:20;10.08;99.99
70271;SHT31;57680;54.292;18.598;2023-10-31T06:50:46;10.11;99.99
70271;SHT31;57680;54.292;18.598;2023-10-31T06:53:11;10.07;99.99
70271;SHT31;57680;54.292;18.598;2023-10-31T06:55:36;10.07;99.99
70271;SHT31;57680;54.292;18.598;2023-10-31T06:58:02;10.07;99.99
70271;SHT31;57680;54.292;18.598;2023-10-31T07:03:11;10.04;99.99
70271;SHT31;57680;54.292;18.598;2023-10-31T07:05:36;10.05;99.99
70271;SHT31;57680;54.292;18.598;2023-10-31T07:08:02;10.08;99.99
70271;SHT31;57680;54.292;18.598;2023-10-31T07:10:27;10.13;99.99
70271;SHT31;57680;54.292;18.598;2023-10-31T07:12:52;10.11;99.99
70271;SHT31;57680;54.292;18.598;2023-10-31T07:15:17;10.13;99.99
70271;SHT31;57680;54.292;18.598;2023-10-31T07:17:43;10.13;99.99
70271;SHT31;57680;54.292;18.598;2023-10-31T07:20:08;10.10;99.99
70271;SHT31;57680;54.292;18.598;2023-10-31T07:22:34;10.07;99.99
70271;SHT31;57680;54.292;18.598;2023-10-31T07:24:59;10.04;99.99
70271;SHT31;57680;54.292;18.598;2023-10-31T07:27:24;10.05;99.99
70271;SHT31;57680;54.292;18.598;2023-10-31T07:29:50;10.08;99.99
70271;SHT31;57680;54.292;18.598;2023-10-31T07:32:15;10.07;99.99
70271;SHT31;57680;54.292;18.598;2023-10-31T07:34:41;10.04;99.99
70271;SHT31;57680;54.292;18.598;2023-10-31T07:37:06;10.05;99.99
70271;SHT31;57680;54.292;18.598;2023-10-31T07:39:32;10.03;99.99
70271;SHT31;57680;54.292;18.598;2023-10-31T07:41:57;10.07;99.99
70271;SHT31;57680;54.292;18.598;2023-10-31T07:44:22;10.04;99.99
70271;SHT31;57680;54.292;18.598;2023-10-31T07:46:47;10.08;99.99
70271;SHT31;57680;54.292;18.598;2023-10-31T07:49:13;10.10;99.99
70271;SHT31;57680;54.292;18.598;2023-10-31T07:51:38;10.11;99.99
70271;SHT31;57680;54.292;18.598;2023-10-31T07:54:04;10.14;99.99
70271;SHT31;57680;54.292;18.598;2023-10-31T07:56:29;10.13;99.99
70271;SHT31;57680;54.292;18.598;2023-10-31T07:58:54;10.11;99.99
70271;SHT31;57680;54.292;18.598;2023-10-31T08:01:20;10.22;99.99
70271;SHT31;57680;54.292;18.598;2023-10-31T08:03:46;10.25;99.99
70271;SHT31;57680;54.292;18.598;2023-10-31T08:06:11;10.35;99.99
70271;SHT31;57680;54.292;18.598;2023-10-31T08:08:37;10.44;99.99
70271;SHT31;57680;54.292;18.598;2023-10-31T08:11:02;10.52;99.99
70271;SHT31;57680;54.292;18.598;2023-10-31T08:13:27;10.55;99.99
70271;SHT31;57680;54.292;18.598;2023-10-31T08:15:53;10.58;99.99
70271;SHT31;57680;54.292;18.598;2023-10-31T08:18:19;10.59;99.99
70271;SHT31;57680;54.292;18.598;2023-10-31T08:20:44;10.64;99.99
70271;SHT31;57680;54.292;18.598;2023-10-31T08:23:10;10.69;99.99
70271;SHT31;57680;54.292;18.598;2023-10-31T08:25:35;10.75;99.99
70271;SHT31;57680;54.292;18.598;2023-10-31T08:28:00;10.77;99.99
70271;SHT31;57680;54.292;18.598;2023-10-31T08:30:26;10.80;99.99
70271;SHT31;57680;54.292;18.598;2023-10-31T08:32:51;10.83;99.99
70271;SHT31;57680;54.292;18.598;2023-10-31T08:35:16;10.88;99.99
70271;SHT31;57680;54.292;18.598;2023-10-31T08:37:41;10.97;99.99
70271;SHT31;57680;54.292;18.598;2023-10-31T08:40:07;11.02;99.99
70271;SHT31;57680;54.292;18.598;2023-10-31T08:42:33;11.04;99.99
70271;SHT31;57680;54.292;18.598;2023-10-31T08:44:58;11.07;99.99
70271;SHT31;57680;54.292;18.598;2023-10-31T08:47:23;11.13;99.99
70271;SHT31;57680;54.292;18.598;2023-10-31T08:57:01;11.16;99.99
70271;SHT31;57680;54.292;18.598;2023-10-31T08:59:26;11.13;99.99
70271;SHT31;57680;54.292;18.598;2023-10-31T09:01:51;11.09;99.99
70271;SHT31;57680;54.292;18.598;2023-10-31T09:04:17;11.06;99.99
70271;SHT31;57680;54.292;18.598;2023-10-31T09:06:42;11.07;99.99
70271;SHT31;57680;54.292;18.598;2023-10-31T09:09:07;11.04;99.99
70271;SHT31;57680;54.292;18.598;2023-10-31T09:11:32;11.06;99.99
70271;SHT31;57680;54.292;18.598;2023-10-31T09:13:58;11.10;99.99
70271;SHT31;57680;54.292;18.598;2023-10-31T09:16:23;11.12;99.99
70271;SHT31;57680;54.292;18.598;2023-10-31T09:18:48;11.16;99.99
70271;SHT31;57680;54.292;18.598;2023-10-31T09:21:14;11.17;99.99
70271;SHT31;57680;54.292;18.598;2023-10-31T09:23:39;11.20;99.99
70271;SHT31;57680;54.292;18.598;2023-10-31T09:26:05;11.28;99.99
70271;SHT31;57680;54.292;18.598;2023-10-31T09:28:30;11.34;99.99
70271;SHT31;57680;54.292;18.598;2023-10-31T09:30:55;11.37;99.99
70271;SHT31;57680;54.292;18.598;2023-10-31T09:33:21;11.43;99.99
70271;SHT31;57680;54.292;18.598;2023-10-31T09:35:46;11.47;99.99
70271;SHT31;57680;54.292;18.598;2023-10-31T09:38:11;11.47;99.99
70271;SHT31;57680;54.292;18.598;2023-10-31T09:40:38;11.44;99.99
70271;SHT31;57680;54.292;18.598;2023-10-31T09:43:03;11.45;99.99
70271;SHT31;57680;54.292;18.598;2023-10-31T09:45:29;11.45;99.99
70271;SHT31;57680;54.292;18.598;2023-10-31T09:47:54;11.54;99.99
70271;SHT31;57680;54.292;18.598;2023-10-31T09:50:19;11.57;99.99
70271;SHT31;57680;54.292;18.598;2023-10-31T09:52:45;11.63;99.99
70271;SHT31;57680;54.292;18.598;2023-10-31T09:55:11;11.71;99.99
70271;SHT31;57680;54.292;18.598;2023-10-31T09:57:37;11.74;99.99
70271;SHT31;57680;54.292;18.598;2023-10-31T10:00:03;11.79;99.99
70271;SHT31;57680;54.292;18.598;2023-10-31T10:02:28;11.84;99.99
70271;SHT31;57680;54.292;18.598;2023-10-31T10:04:53;11.86;99.99
70271;SHT31;57680;54.292;18.598;2023-10-31T10:07:19;11.91;99.99
70271;SHT31;57680;54.292;18.598;2023-10-31T10:09:45;11.91;99.99
70271;SHT31;57680;54.292;18.598;2023-10-31T10:12:12;11.98;99.99
70271;SHT31;57680;54.292;18.598;2023-10-31T10:14:38;12.05;99.99
70271;SHT31;57680;54.292;18.598;2023-10-31T10:17:24;12.09;99.99
70271;SHT31;57680;54.292;18.598;2023-10-31T10:20:06;12.16;99.99
70271;SHT31;57680;54.292;18.598;2023-10-31T10:27:19;12.29;99.99
70271;SHT31;57680;54.292;18.598;2023-10-31T10:29:45;12.32;99.99
70271;SHT31;57680;54.292;18.598;2023-10-31T10:32:10;12.37;99.99
70271;SHT31;57680;54.292;18.598;2023-10-31T10:34:35;12.43;99.99
70271;SHT31;57680;54.292;18.598;2023-10-31T10:37:01;12.53;99.99
70271;SHT31;57680;54.292;18.598;2023-10-31T10:39:32;12.63;99.99
70271;SHT31;57680;54.292;18.598;2023-10-31T10:42:00;12.68;99.99
70271;SHT31;57680;54.292;18.598;2023-10-31T10:44:35;12.81;99.99
70271;SHT31;57680;54.292;18.598;2023-10-31T10:47:04;12.88;99.99
70271;SHT31;57680;54.292;18.598;2023-10-31T10:49:33;12.88;99.99
70271;SHT31;57680;54.292;18.598;2023-10-31T10:52:01;12.94;99.99
70271;SHT31;57680;54.292;18.598;2023-10-31T10:54:35;13.01;99.99
70271;SHT31;57680;54.292;18.598;2023-10-31T10:57:15;13.04;99.99
70271;SHT31;57680;54.292;18.598;2023-10-31T10:59:43;13.08;99.88
70271;SHT31;57680;54.292;18.598;2023-10-31T11:02:12;13.10;99.80
70271;SHT31;57680;54.292;18.598;2023-10-31T11:04:38;13.12;99.65
70271;SHT31;57680;54.292;18.598;2023-10-31T11:07:05;13.25;99.25
70271;SHT31;57680;54.292;18.598;2023-10-31T11:09:31;13.28;99.08
70271;SHT31;57680;54.292;18.598;2023-10-31T11:11:56;13.38;98.95
70271;SHT31;57680;54.292;18.598;2023-10-31T11:14:22;13.46;98.81
70271;SHT31;57680;54.292;18.598;2023-10-31T11:16:51;13.58;98.46
70271;SHT31;57680;54.292;18.598;2023-10-31T11:19:17;13.65;98.17
70271;SHT31;57680;54.292;18.598;2023-10-31T11:21:58;13.79;97.79
70271;SHT31;57680;54.292;18.598;2023-10-31T11:24:47;13.89;97.43
70271;SHT31;57680;54.292;18.598;2023-10-31T11:27:12;13.91;96.86
70271;SHT31;57680;54.292;18.598;2023-10-31T11:29:37;13.96;96.79
70271;SHT31;57680;54.292;18.598;2023-10-31T11:32:03;13.93;96.82
70271;SHT31;57680;54.292;18.598;2023-10-31T11:34:30;13.89;97.01
70271;SHT31;57680;54.292;18.598;2023-10-31T11:37:27;13.86;96.42
70271;SHT31;57680;54.292;18.598;2023-10-31T11:42:41;13.90;96.35
70271;SHT31;57680;54.292;18.598;2023-10-31T11:45:09;14.04;96.03
70271;SHT31;57680;54.292;18.598;2023-10-31T11:50:13;14.14;95.48
70271;SHT31;57680;54.292;18.598;2023-10-31T11:52:38;14.16;95.22
70271;SHT31;57680;54.292;18.598;2023-10-31T11:55:08;14.20;94.76
70271;SHT31;57680;54.292;18.598;2023-10-31T11:57:34;14.14;94.74
70271;SHT31;57680;54.292;18.598;2023-10-31T11:59:59;14.07;94.86
70271;SHT31;57680;54.292;18.598;2023-10-31T12:02:25;14.02;94.94
70271;SHT31;57680;54.292;18.598;2023-10-31T12:04:50;13.97;94.91
70271;SHT31;57680;54.292;18.598;2023-10-31T12:07:15;13.90;94.85
70271;SHT31;57680;54.292;18.598;2023-10-31T12:09:47;13.89;94.65
70271;SHT31;57680;54.292;18.598;2023-10-31T12:12:13;13.80;94.96
70271;SHT31;57680;54.292;18.598;2023-10-31T12:14:38;13.83;94.98
70271;SHT31;57680;54.292;18.598;2023-10-31T12:17:04;13.77;95.02
70271;SHT31;57680;54.292;18.598;2023-10-31T12:19:30;13.73;94.90
70271;SHT31;57680;54.292;18.598;2023-10-31T12:21:55;13.70;94.92
70271;SHT31;57680;54.292;18.598;2023-10-31T12:24:21;13.63;95.09
70271;SHT31;57680;54.292;18.598;2023-10-31T12:26:46;13.62;95.52
70271;SHT31;57680;54.292;18.598;2023-10-31T12:31:46;13.65;94.71
70271;SHT31;57680;54.292;18.598;2023-10-31T12:34:16;13.56;94.58
70271;SHT31;57680;54.292;18.598;2023-10-31T12:36:42;13.55;94.54
70271;SHT31;57680;54.292;18.598;2023-10-31T12:39:10;13.55;94.68
70271;SHT31;57680;54.292;18.598;2023-10-31T12:41:37;13.55;94.74
70271;SHT31;57680;54.292;18.598;2023-10-31T12:44:02;13.56;94.80
70271;SHT31;57680;54.292;18.598;2023-10-31T12:46:29;13.52;94.84
70271;SHT31;57680;54.292;18.598;2023-10-31T12:48:56;13.51;94.75
70271;SHT31;57680;54.292;18.598;2023-10-31T12:51:21;13.45;94.71
70271;SHT31;57680;54.292;18.598;2023-10-31T12:53:50;13.51;94.49
70271;SHT31;57680;54.292;18.598;2023-10-31T12:56:41;13.48;93.99
70271;SHT31;57680;54.292;18.598;2023-10-31T12:59:08;13.52;93.77
70271;SHT31;57680;54.292;18.598;2023-10-31T13:01:35;13.53;93.57
70271;SHT31;57680;54.292;18.598;2023-10-31T13:04:01;13.56;92.74
70271;SHT31;57680;54.292;18.598;2023-10-31T13:06:26;13.59;92.63
70271;SHT31;57680;54.292;18.598;2023-10-31T13:08:51;13.61;92.57
70271;SHT31;57680;54.292;18.598;2023-10-31T13:11:20;13.65;92.04
70271;SHT31;57680;54.292;18.598;2023-10-31T13:13:45;13.62;92.03
70271;SHT31;57680;54.292;18.598;2023-10-31T13:16:11;13.61;92.12
70271;SHT31;57680;54.292;18.598;2023-10-31T13:18:36;13.69;91.29
70271;SHT31;57680;54.292;18.598;2023-10-31T13:21:02;13.67;91.63
70271;SHT31;57680;54.292;18.598;2023-10-31T13:23:27;13.69;91.63
70271;SHT31;57680;54.292;18.598;2023-10-31T13:25:53;13.70;91.63
70271;SHT31;57680;54.292;18.598;2023-10-31T13:28:18;13.67;91.86
70271;SHT31;57680;54.292;18.598;2023-10-31T13:30:43;13.70;91.72
70271;SHT31;57680;54.292;18.598;2023-10-31T13:33:09;13.65;91.95
70271;SHT31;57680;54.292;18.598;2023-10-31T13:35:34;13.65;91.76
70271;SHT31;57680;54.292;18.598;2023-10-31T13:37:59;13.61;91.87
70271;SHT31;57680;54.292;18.598;2023-10-31T13:40:25;13.53;92.32
70271;SHT31;57680;54.292;18.598;2023-10-31T13:42:50;13.51;92.40
70271;SHT31;57680;54.292;18.598;2023-10-31T13:45:15;13.49;92.56
70271;SHT31;57680;54.292;18.598;2023-10-31T13:47:41;13.45;92.55
70271;SHT31;57680;54.292;18.598;2023-10-31T13:50:06;13.45;92.74
70271;SHT31;57680;54.292;18.598;2023-10-31T13:52:32;13.32;92.92
70271;SHT31;57680;54.292;18.598;2023-10-31T13:54:57;13.42;92.55
70271;SHT31;57680;54.292;18.598;2023-10-31T13:57:22;13.42;92.61
70271;SHT31;57680;54.292;18.598;2023-10-31T13:59:49;13.38;92.82
70271;SHT31;57680;54.292;18.598;2023-10-31T14:02:15;13.38;93.13
70271;SHT31;57680;54.292;18.598;2023-10-31T14:04:40;13.36;93.54
70271;SHT31;57680;54.292;18.598;2023-10-31T14:07:06;13.29;94.01
70271;SHT31;57680;54.292;18.598;2023-10-31T14:09:31;13.25;94.12
70271;SHT31;57680;54.292;18.598;2023-10-31T14:11:56;13.26;93.89
70271;SHT31;57680;54.292;18.598;2023-10-31T14:14:22;13.26;93.75
70271;SHT31;57680;54.292;18.598;2023-10-31T14:16:47;13.22;93.70
70271;SHT31;57680;54.292;18.598;2023-10-31T14:19:13;13.25;93.16
70271;SHT31;57680;54.292;18.598;2023-10-31T14:21:38;13.18;93.08
70271;SHT31;57680;54.292;18.598;2023-10-31T14:24:04;13.28;92.46
70271;SHT31;57680;54.292;18.598;2023-10-31T14:26:30;13.32;92.25
70271;SHT31;57680;54.292;18.598;2023-10-31T14:28:56;13.26;92.29
70271;SHT31;57680;54.292;18.598;2023-10-31T14:31:21;13.29;92.06
70271;SHT31;57680;54.292;18.598;2023-10-31T14:33:47;13.26;92.00
70271;SHT31;57680;54.292;18.598;2023-10-31T14:36:12;13.25;92.04
70271;SHT31;57680;54.292;18.598;2023-10-31T14:38:39;13.31;91.72
70271;SHT31;57680;54.292;18.598;2023-10-31T14:41:04;13.26;91.99
70271;SHT31;57680;54.292;18.598;2023-10-31T14:43:29;13.24;91.61
70271;SHT31;57680;54.292;18.598;2023-10-31T14:45:55;13.25;91.71
70271;SHT31;57680;54.292;18.598;2023-10-31T14:48:21;13.21;91.99
70271;SHT31;57680;54.292;18.598;2023-10-31T14:50:47;13.18;91.95
70271;SHT31;57680;54.292;18.598;2023-10-31T14:53:13;13.15;92.22
70271;SHT31;57680;54.292;18.598;2023-10-31T14:55:38;13.18;92.03
70271;SHT31;57680;54.292;18.598;2023-10-31T14:58:03;13.11;92.17
70271;SHT31;57680;54.292;18.598;2023-10-31T15:00:29;13.15;92.11
70271;SHT31;57680;54.292;18.598;2023-10-31T15:02:54;13.18;91.93
70271;SHT31;57680;54.292;18.598;2023-10-31T15:05:19;13.11;92.24
70271;SHT31;57680;54.292;18.598;2023-10-31T15:07:45;13.08;92.24
70271;SHT31;57680;54.292;18.598;2023-10-31T15:10:10;13.04;92.28
70271;SHT31;57680;54.292;18.598;2023-10-31T15:12:35;13.11;92.23
70271;SHT31;57680;54.292;18.598;2023-10-31T15:15:00;13.08;92.27
70271;SHT31;57680;54.292;18.598;2023-10-31T15:17:26;13.05;92.53
70271;SHT31;57680;54.292;18.598;2023-10-31T15:19:51;13.04;92.79
70271;SHT31;57680;54.292;18.598;2023-10-31T15:22:16;13.05;92.48
70271;SHT31;57680;54.292;18.598;2023-10-31T15:24:42;13.01;92.83
70271;SHT31;57680;54.292;18.598;2023-10-31T15:27:07;13.00;92.86
70271;SHT31;57680;54.292;18.598;2023-10-31T15:29:32;12.95;92.85
70271;SHT31;57680;54.292;18.598;2023-10-31T15:31:58;12.93;92.88
70271;SHT31;57680;54.292;18.598;2023-10-31T15:34:23;12.90;92.93
70271;SHT31;57680;54.292;18.598;2023-10-31T15:36:48;12.88;92.99
70271;SHT31;57680;54.292;18.598;2023-10-31T15:39:14;12.84;93.19
70271;SHT31;57680;54.292;18.598;2023-10-31T15:41:39;12.90;92.39
70271;SHT31;57680;54.292;18.598;2023-10-31T15:44:04;12.85;92.53
70271;SHT31;57680;54.292;18.598;2023-10-31T15:46:30;12.79;92.53
70271;SHT31;57680;54.292;18.598;2023-10-31T15:48:55;12.77;92.57
70271;SHT31;57680;54.292;18.598;2023-10-31T15:51:20;12.72;92.53
70271;SHT31;57680;54.292;18.598;2023-10-31T15:53:46;12.66;92.90
70271;SHT31;57680;54.292;18.598;2023-10-31T15:56:11;12.57;93.41
70271;SHT31;57680;54.292;18.598;2023-10-31T15:58:37;12.46;93.59
70271;SHT31;57680;54.292;18.598;2023-10-31T16:01:03;12.30;93.84
70271;SHT31;57680;54.292;18.598;2023-10-31T16:03:28;12.16;93.73
70271;SHT31;57680;54.292;18.598;2023-10-31T16:05:54;11.98;94.65